createdAt,value
2023-12-19T00:00:19.424Z,614.00
2023-12-19T00:01:19.466Z,616.00
2023-12-19T00:02:19.760Z,615.00
2023-12-19T00:03:19.591Z,618.00
2023-12-19T00:04:19.675Z,619.00
2023-12-19T00:05:19.607Z,615.00
2023-12-19T00:06:19.720Z,616.00
2023-12-19T00:07:19.660Z,619.00
2023-12-19T00:08:19.697Z,613.00
2023-12-19T00:09:19.809Z,616.00
2023-12-19T00:10:19.783Z,615.00
2023-12-19T00:11:19.835Z,614.00
2023-12-19T00:12:19.857Z,607.00
2023-12-19T00:13:19.864Z,615.00
2023-12-19T00:14:19.910Z,617.00
2023-12-19T00:15:20.037Z,613.00
2023-12-19T00:16:19.968Z,616.00
2023-12-19T00:17:20.058Z,614.00
2023-12-19T00:18:20.162Z,614.00
2023-12-19T00:19:20.296Z,614.00
2023-12-19T00:20:20.094Z,615.00
2023-12-19T00:21:20.204Z,617.00
2023-12-19T00:22:20.177Z,617.00
2023-12-19T00:23:20.230Z,616.00
2023-12-19T00:24:20.288Z,618.00
2023-12-19T00:25:20.259Z,621.00
2023-12-19T00:26:20.243Z,620.00
2023-12-19T00:27:20.478Z,614.00
2023-12-19T00:28:20.327Z,616.00
2023-12-19T00:29:20.336Z,614.00
2023-12-19T00:30:20.544Z,618.00
2023-12-19T00:31:20.563Z,617.00
2023-12-19T00:32:20.471Z,619.00
2023-12-19T00:33:20.656Z,618.00
2023-12-19T00:34:20.636Z,620.00
2023-12-19T00:35:20.553Z,621.00
2023-12-19T00:36:20.627Z,623.00
2023-12-19T00:37:20.675Z,621.00
2023-12-19T00:38:20.605Z,622.00
2023-12-19T00:39:20.731Z,623.00
2023-12-19T00:40:20.763Z,623.00
2023-12-19T00:41:20.756Z,624.00
2023-12-19T00:42:20.785Z,624.00
2023-12-19T00:43:20.771Z,623.00
2023-12-19T00:44:20.842Z,623.00
2023-12-19T00:45:21.079Z,626.00
2023-12-19T00:46:20.900Z,627.00
2023-12-19T00:47:20.918Z,625.00
2023-12-19T00:48:21.073Z,627.00
2023-12-19T00:49:20.934Z,627.00
2023-12-19T00:50:20.970Z,628.00
2023-12-19T00:51:21.004Z,630.00
2023-12-19T00:52:21.035Z,627.00
2023-12-19T00:53:21.048Z,630.00
2023-12-19T00:54:21.080Z,631.00
2023-12-19T00:55:21.094Z,629.00
2023-12-19T00:56:22.835Z,630.00
2023-12-19T00:57:21.167Z,632.00
2023-12-19T00:58:21.175Z,628.00
2023-12-19T00:59:21.179Z,626.00
2023-12-19T01:00:21.263Z,630.00
2023-12-19T01:01:21.325Z,628.00
2023-12-19T01:02:21.236Z,631.00
2023-12-19T01:03:21.456Z,629.00
2023-12-19T01:04:21.380Z,626.00
2023-12-19T01:05:21.305Z,626.00
2023-12-19T01:06:21.429Z,625.00
2023-12-19T01:07:21.398Z,628.00
2023-12-19T01:08:21.378Z,627.00
2023-12-19T01:09:21.528Z,629.00
2023-12-19T01:10:21.516Z,628.00
2023-12-19T01:11:21.450Z,629.00
2023-12-19T01:12:21.630Z,628.00
2023-12-19T01:13:21.496Z,628.00
2023-12-19T01:14:21.497Z,627.00
2023-12-19T01:15:21.602Z,628.00
2023-12-19T01:16:21.538Z,627.00
2023-12-19T01:17:21.602Z,629.00
2023-12-19T01:18:21.635Z,629.00
2023-12-19T01:19:21.675Z,629.00
2023-12-19T01:20:21.632Z,629.00
2023-12-19T01:21:21.650Z,627.00
2023-12-19T01:22:21.643Z,627.00
2023-12-19T01:23:21.702Z,625.00
2023-12-19T01:24:21.695Z,626.00
2023-12-19T01:25:21.767Z,626.00
2023-12-19T01:26:27.279Z,624.00
2023-12-19T01:27:22.758Z,624.00
2023-12-19T01:28:21.733Z,625.00
2023-12-19T01:29:21.758Z,625.00
2023-12-19T01:30:21.758Z,625.00
2023-12-19T01:31:21.809Z,621.00
2023-12-19T01:32:21.766Z,624.00
2023-12-19T01:33:22.003Z,623.00
2023-12-19T01:34:22.159Z,618.00
2023-12-19T01:35:21.777Z,621.00
2023-12-19T01:36:21.767Z,621.00
2023-12-19T01:37:21.757Z,622.00
2023-12-19T01:38:21.733Z,617.00
2023-12-19T01:39:21.772Z,620.00
2023-12-19T01:40:21.770Z,623.00
2023-12-19T01:41:21.766Z,622.00
2023-12-19T01:42:21.786Z,620.00
2023-12-19T01:43:21.733Z,619.00
2023-12-19T01:44:21.782Z,626.00
2023-12-19T01:45:21.790Z,622.00
2023-12-19T01:46:21.754Z,621.00
2023-12-19T01:47:21.772Z,621.00
2023-12-19T01:48:21.805Z,620.00
2023-12-19T01:49:21.888Z,618.00
2023-12-19T01:50:21.807Z,620.00
2023-12-19T01:51:21.809Z,620.00
2023-12-19T01:52:21.806Z,620.00
2023-12-19T01:53:21.756Z,619.00
2023-12-19T01:54:21.804Z,616.00
2023-12-19T01:55:21.833Z,620.00
2023-12-19T01:56:21.857Z,617.00
2023-12-19T01:57:21.843Z,617.00
2023-12-19T01:58:21.791Z,619.00
2023-12-19T01:59:21.805Z,619.00
2023-12-19T02:00:21.962Z,620.00
2023-12-19T02:01:21.943Z,614.00
2023-12-19T02:02:21.870Z,619.00
2023-12-19T02:03:21.912Z,619.00
2023-12-19T02:04:21.871Z,617.00
2023-12-19T02:05:21.921Z,616.00
2023-12-19T02:06:21.936Z,620.00
2023-12-19T02:07:21.924Z,620.00
2023-12-19T02:08:21.967Z,620.00
2023-12-19T02:09:22.004Z,619.00
2023-12-19T02:10:22.084Z,619.00
2023-12-19T02:11:22.057Z,621.00
2023-12-19T02:12:22.080Z,621.00
2023-12-19T02:13:22.133Z,615.00
2023-12-19T02:14:22.152Z,623.00
2023-12-19T02:15:22.180Z,619.00
2023-12-19T02:16:22.205Z,623.00
2023-12-19T02:17:22.205Z,621.00
2023-12-19T02:18:22.462Z,622.00
2023-12-19T02:19:22.358Z,616.00
2023-12-19T02:20:22.319Z,621.00
2023-12-19T02:21:22.390Z,617.00
2023-12-19T02:22:22.378Z,615.00
2023-12-19T02:23:22.432Z,617.00
2023-12-19T02:24:22.508Z,621.00
2023-12-19T02:25:22.500Z,618.00
2023-12-19T02:26:22.573Z,616.00
2023-12-19T02:27:22.693Z,616.00
2023-12-19T02:28:22.683Z,615.00
2023-12-19T02:29:22.780Z,616.00
2023-12-19T02:30:22.971Z,616.00
2023-12-19T02:31:22.988Z,615.00
2023-12-19T02:32:22.957Z,611.00
2023-12-19T02:33:23.027Z,613.00
2023-12-19T02:34:23.107Z,614.00
2023-12-19T02:35:23.039Z,612.00
2023-12-19T02:36:23.168Z,612.00
2023-12-19T02:37:23.217Z,613.00
2023-12-19T02:38:23.366Z,614.00
2023-12-19T02:39:23.402Z,612.00
2023-12-19T02:40:23.397Z,611.00
2023-12-19T02:41:23.414Z,615.00
2023-12-19T02:42:23.562Z,615.00
2023-12-19T02:43:23.585Z,613.00
2023-12-19T02:44:23.782Z,612.00
2023-12-19T02:45:23.806Z,612.00
2023-12-19T02:46:23.842Z,613.00
2023-12-19T02:47:23.982Z,612.00
2023-12-19T02:48:24.260Z,614.00
2023-12-19T02:49:24.135Z,614.00
2023-12-19T02:50:24.119Z,613.00
2023-12-19T02:51:24.213Z,616.00
2023-12-19T02:52:24.223Z,612.00
2023-12-19T02:53:24.292Z,615.00
2023-12-19T02:54:24.428Z,612.00
2023-12-19T02:55:24.443Z,613.00
2023-12-19T02:56:24.498Z,611.00
2023-12-19T02:57:24.649Z,614.00
2023-12-19T02:58:24.696Z,615.00
2023-12-19T02:59:24.764Z,613.00
2023-12-19T03:00:24.829Z,613.00
2023-12-19T03:01:24.966Z,615.00
2023-12-19T03:02:24.855Z,613.00
2023-12-19T03:03:25.070Z,615.00
2023-12-19T03:04:25.082Z,615.00
2023-12-19T03:05:25.121Z,618.00
2023-12-19T03:06:25.182Z,619.00
2023-12-19T03:07:25.200Z,619.00
2023-12-19T03:08:25.309Z,618.00
2023-12-19T03:09:25.409Z,620.00
2023-12-19T03:10:25.430Z,619.00
2023-12-19T03:11:25.503Z,620.00
2023-12-19T03:12:25.614Z,617.00
2023-12-19T03:13:25.657Z,620.00
2023-12-19T03:14:25.713Z,618.00
2023-12-19T03:15:25.990Z,619.00
2023-12-19T03:16:25.865Z,617.00
2023-12-19T03:17:25.940Z,615.00
2023-12-19T03:18:26.338Z,617.00
2023-12-19T03:19:26.242Z,617.00
2023-12-19T03:20:26.154Z,613.00
2023-12-19T03:21:26.251Z,615.00
2023-12-19T03:22:26.344Z,616.00
2023-12-19T03:23:26.343Z,613.00
2023-12-19T03:24:26.406Z,612.00
2023-12-19T03:25:26.478Z,619.00
2023-12-19T03:26:26.632Z,617.00
2023-12-19T03:27:26.690Z,613.00
2023-12-19T03:28:26.662Z,618.00
2023-12-19T03:29:26.745Z,617.00
2023-12-19T03:30:26.907Z,615.00
2023-12-19T03:31:27.069Z,614.00
2023-12-19T03:32:26.965Z,614.00
2023-12-19T03:33:27.063Z,612.00
2023-12-19T03:34:27.256Z,614.00
2023-12-19T03:35:27.150Z,614.00
2023-12-19T03:36:27.222Z,616.00
2023-12-19T03:37:27.289Z,615.00
2023-12-19T03:38:27.317Z,616.00
2023-12-19T03:39:27.472Z,617.00
2023-12-19T03:40:27.480Z,614.00
2023-12-19T03:41:27.549Z,613.00
2023-12-19T03:42:27.615Z,613.00
2023-12-19T03:43:27.636Z,616.00
2023-12-19T03:44:27.658Z,615.00
2023-12-19T03:45:27.738Z,613.00
2023-12-19T03:46:27.784Z,614.00
2023-12-19T03:47:27.880Z,613.00
2023-12-19T03:48:27.963Z,614.00
2023-12-19T03:49:28.055Z,611.00
2023-12-19T03:50:27.956Z,613.00
2023-12-19T03:51:28.090Z,612.00
2023-12-19T03:52:28.080Z,613.00
2023-12-19T03:53:28.118Z,613.00
2023-12-19T03:54:28.206Z,615.00
2023-12-19T03:55:28.236Z,613.00
2023-12-19T03:56:28.334Z,615.00
2023-12-19T03:57:28.352Z,615.00
2023-12-19T03:58:28.430Z,614.00
2023-12-19T03:59:28.433Z,611.00
2023-12-19T04:00:28.526Z,613.00
2023-12-19T04:01:28.719Z,609.00
2023-12-19T04:02:28.652Z,608.00
2023-12-19T04:03:28.694Z,612.00
2023-12-19T04:04:28.941Z,614.00
2023-12-19T04:05:28.924Z,610.00
2023-12-19T04:06:28.834Z,610.00
2023-12-19T04:07:28.895Z,614.00
2023-12-19T04:08:28.957Z,610.00
2023-12-19T04:09:29.100Z,612.00
2023-12-19T04:10:29.121Z,614.00
2023-12-19T04:11:29.143Z,612.00
2023-12-19T04:12:29.216Z,612.00
2023-12-19T04:13:29.232Z,611.00
2023-12-19T04:14:29.273Z,610.00
2023-12-19T04:15:29.325Z,609.00
2023-12-19T04:16:29.371Z,608.00
2023-12-19T04:17:29.413Z,608.00
2023-12-19T04:18:29.463Z,608.00
2023-12-19T04:19:29.581Z,606.00
2023-12-19T04:20:29.609Z,607.00
2023-12-19T04:21:29.708Z,606.00
2023-12-19T04:22:29.672Z,610.00
2023-12-19T04:23:29.667Z,608.00
2023-12-19T04:24:29.775Z,607.00
2023-12-19T04:25:29.776Z,611.00
2023-12-19T04:26:29.846Z,611.00
2023-12-19T04:27:37.138Z,600.00
2023-12-19T04:28:37.073Z,600.00
2023-12-19T04:29:37.084Z,600.00
2023-12-19T04:30:37.092Z,600.00
2023-12-19T04:31:44.416Z,600.00
2023-12-19T04:32:44.689Z,600.00
2023-12-19T04:33:44.494Z,600.00
2023-12-19T04:34:44.411Z,600.00
2023-12-19T04:35:44.340Z,600.00
2023-12-19T04:36:44.415Z,601.00
2023-12-19T04:37:44.332Z,603.00
2023-12-19T04:38:44.371Z,600.00
2023-12-19T04:39:44.402Z,600.00
2023-12-19T04:40:44.362Z,606.00
2023-12-19T04:41:44.388Z,601.00
2023-12-19T04:42:44.577Z,606.00
2023-12-19T04:43:44.353Z,604.00
2023-12-19T04:44:44.345Z,602.00
2023-12-19T04:45:44.406Z,606.00
2023-12-19T04:46:44.367Z,602.00
2023-12-19T04:47:44.409Z,605.00
2023-12-19T04:48:44.552Z,603.00
2023-12-19T04:49:44.521Z,603.00
2023-12-19T04:50:44.427Z,604.00
2023-12-19T04:51:44.477Z,608.00
2023-12-19T04:52:44.566Z,603.00
2023-12-19T04:53:44.368Z,607.00
2023-12-19T04:54:44.386Z,604.00
2023-12-19T04:55:44.562Z,606.00
2023-12-19T04:56:44.374Z,603.00
2023-12-19T04:57:44.467Z,605.00
2023-12-19T04:58:44.493Z,607.00
2023-12-19T04:59:44.576Z,609.00
2023-12-19T05:00:44.644Z,607.00
2023-12-19T05:01:44.662Z,605.00
2023-12-19T05:02:44.818Z,609.00
2023-12-19T05:03:44.773Z,605.00
2023-12-19T05:04:44.753Z,603.00
2023-12-19T05:05:44.861Z,604.00
2023-12-19T05:06:44.891Z,605.00
2023-12-19T05:07:44.972Z,603.00
2023-12-19T05:08:44.917Z,605.00
2023-12-19T05:09:45.067Z,602.00
2023-12-19T05:10:45.050Z,603.00
2023-12-19T05:11:45.106Z,603.00
2023-12-19T05:12:45.399Z,606.00
2023-12-19T05:13:45.254Z,609.00
2023-12-19T05:14:45.339Z,609.00
2023-12-19T05:15:45.396Z,615.00
2023-12-19T05:16:45.396Z,607.00
2023-12-19T05:17:48.546Z,608.00
2023-12-19T05:18:45.641Z,609.00
2023-12-19T05:19:50.610Z,607.00
2023-12-19T05:20:46.508Z,607.00
2023-12-19T05:21:45.500Z,607.00
2023-12-19T05:22:45.974Z,609.00
2023-12-19T05:23:45.515Z,611.00
2023-12-19T05:24:45.529Z,612.00
2023-12-19T05:25:45.487Z,613.00
2023-12-19T05:26:45.453Z,613.00
2023-12-19T05:27:45.589Z,611.00
2023-12-19T05:28:45.476Z,608.00
2023-12-19T05:29:45.491Z,602.00
2023-12-19T05:30:45.550Z,604.00
2023-12-19T05:31:45.519Z,606.00
2023-12-19T05:32:45.798Z,605.00
2023-12-19T05:33:45.710Z,606.00
2023-12-19T05:34:45.620Z,606.00
2023-12-19T05:35:45.571Z,611.00
2023-12-19T05:36:45.604Z,610.00
2023-12-19T05:37:45.630Z,613.00
2023-12-19T05:38:45.646Z,613.00
2023-12-19T05:39:45.663Z,613.00
2023-12-19T05:40:45.703Z,609.00
2023-12-19T05:41:45.757Z,613.00
2023-12-19T05:42:46.095Z,614.00
2023-12-19T05:43:45.784Z,616.00
2023-12-19T05:44:45.842Z,618.00
2023-12-19T05:45:45.928Z,619.00
2023-12-19T05:46:45.996Z,617.00
2023-12-19T05:47:46.146Z,619.00
2023-12-19T05:48:46.161Z,618.00
2023-12-19T05:49:46.176Z,618.00
2023-12-19T05:50:46.183Z,621.00
2023-12-19T05:51:46.278Z,619.00
2023-12-19T05:52:46.478Z,620.00
2023-12-19T05:53:46.414Z,629.00
2023-12-19T05:54:46.450Z,625.00
2023-12-19T05:55:46.486Z,626.00
2023-12-19T05:56:46.539Z,628.00
2023-12-19T05:57:46.674Z,630.00
2023-12-19T05:58:46.654Z,631.00
2023-12-19T05:59:46.737Z,635.00
2023-12-19T06:00:46.855Z,633.00
2023-12-19T06:01:46.992Z,637.00
2023-12-19T06:02:47.048Z,635.00
2023-12-19T06:03:47.108Z,641.00
2023-12-19T06:04:47.036Z,640.00
2023-12-19T06:05:47.218Z,642.00
2023-12-19T06:06:47.288Z,647.00
2023-12-19T06:07:47.171Z,649.00
2023-12-19T06:08:47.237Z,648.00
2023-12-19T06:09:47.243Z,649.00
2023-12-19T06:10:47.314Z,649.00
2023-12-19T06:11:47.248Z,650.00
2023-12-19T06:12:47.568Z,651.00
2023-12-19T06:13:47.268Z,656.00
2023-12-19T06:14:47.260Z,655.00
2023-12-19T06:15:47.316Z,640.00
2023-12-19T06:16:47.331Z,636.00
2023-12-19T06:17:47.323Z,622.00
2023-12-19T06:18:47.442Z,607.00
2023-12-19T06:19:47.481Z,600.00
2023-12-19T06:20:47.459Z,600.00
2023-12-19T06:21:47.554Z,602.00
2023-12-19T06:22:47.581Z,600.00
2023-12-19T06:23:47.604Z,600.00
2023-12-19T06:24:47.666Z,600.00
2023-12-19T06:25:47.656Z,602.00
2023-12-19T06:26:47.705Z,605.00
2023-12-19T06:27:47.746Z,604.00
2023-12-19T06:28:47.782Z,607.00
2023-12-19T06:29:47.765Z,607.00
2023-12-19T06:30:47.977Z,609.00
2023-12-19T06:31:47.938Z,606.00
2023-12-19T06:32:47.828Z,610.00
2023-12-19T06:33:48.285Z,610.00
2023-12-19T06:34:47.963Z,609.00
2023-12-19T06:35:48.124Z,612.00
2023-12-19T06:36:47.998Z,611.00
2023-12-19T06:37:48.003Z,609.00
2023-12-19T06:38:47.938Z,612.00
2023-12-19T06:39:48.013Z,613.00
2023-12-19T06:40:48.053Z,611.00
2023-12-19T06:41:48.631Z,612.00
2023-12-19T06:42:48.373Z,614.00
2023-12-19T06:43:48.123Z,623.00
2023-12-19T06:44:48.179Z,635.00
2023-12-19T06:45:48.244Z,651.00
2023-12-19T06:46:48.183Z,677.00
2023-12-19T06:47:48.332Z,734.00
2023-12-19T06:48:48.378Z,776.00
2023-12-19T06:49:48.392Z,777.00
2023-12-19T06:50:48.382Z,819.00
2023-12-19T06:51:48.553Z,825.00
2023-12-19T06:52:48.501Z,826.00
2023-12-19T06:53:48.499Z,842.00
2023-12-19T06:54:48.577Z,831.00
2023-12-19T06:55:49.072Z,817.00
2023-12-19T06:56:48.682Z,830.00
2023-12-19T06:57:48.757Z,839.00
2023-12-19T06:58:49.022Z,846.00
2023-12-19T06:59:48.793Z,856.00
2023-12-19T07:00:49.009Z,858.00
2023-12-19T07:01:48.894Z,853.00
2023-12-19T07:02:48.808Z,864.00
2023-12-19T07:03:49.146Z,849.00
2023-12-19T07:04:48.943Z,851.00
2023-12-19T07:05:49.017Z,853.00
2023-12-19T07:06:49.072Z,845.00
2023-12-19T07:07:49.697Z,832.00
2023-12-19T07:08:50.339Z,794.00
2023-12-19T07:09:49.207Z,751.00
2023-12-19T07:10:49.209Z,745.00
2023-12-19T07:11:49.202Z,737.00
2023-12-19T07:12:49.626Z,731.00
2023-12-19T07:13:49.298Z,715.00
2023-12-19T07:14:49.727Z,724.00
2023-12-19T07:15:49.407Z,719.00
2023-12-19T07:16:49.396Z,716.00
2023-12-19T07:17:49.443Z,717.00
2023-12-19T07:18:49.718Z,714.00
2023-12-19T07:19:50.958Z,715.00
2023-12-19T07:20:49.673Z,718.00
2023-12-19T07:21:49.708Z,714.00
2023-12-19T07:22:49.636Z,714.00
2023-12-19T07:23:49.657Z,703.00
2023-12-19T07:24:49.704Z,717.00
2023-12-19T07:25:50.517Z,721.00
2023-12-19T07:26:51.086Z,718.00
2023-12-19T07:27:49.873Z,700.00
2023-12-19T07:28:49.932Z,707.00
2023-12-19T07:29:50.528Z,718.00
2023-12-19T07:30:50.052Z,722.00
2023-12-19T07:31:50.138Z,718.00
2023-12-19T07:32:50.621Z,721.00
2023-12-19T07:33:50.324Z,721.00
2023-12-19T07:34:50.211Z,739.00
2023-12-19T07:35:50.170Z,748.00
2023-12-19T07:36:50.274Z,757.00
2023-12-19T07:37:50.296Z,768.00
2023-12-19T07:38:50.302Z,767.00
2023-12-19T07:39:51.070Z,768.00
2023-12-19T07:40:50.428Z,757.00
2023-12-19T07:41:50.598Z,764.00
2023-12-19T07:42:50.719Z,763.00
2023-12-19T07:43:50.658Z,756.00
2023-12-19T07:44:50.693Z,746.00
2023-12-19T07:45:50.782Z,743.00
2023-12-19T07:46:50.665Z,733.00
2023-12-19T07:47:51.257Z,740.00
2023-12-19T07:48:50.928Z,738.00
2023-12-19T07:49:51.887Z,737.00
2023-12-19T07:50:51.318Z,736.00
2023-12-19T07:51:51.022Z,727.00
2023-12-19T07:52:50.994Z,732.00
2023-12-19T07:53:50.862Z,736.00
2023-12-19T07:54:50.983Z,741.00
2023-12-19T07:55:51.098Z,742.00
2023-12-19T07:56:50.942Z,746.00
2023-12-19T07:57:50.965Z,756.00
2023-12-19T07:58:50.956Z,770.00
2023-12-19T07:59:51.012Z,776.00
2023-12-19T08:00:51.148Z,786.00
2023-12-19T08:01:51.469Z,789.00
2023-12-19T08:02:51.253Z,799.00
2023-12-19T08:03:52.516Z,810.00
2023-12-19T08:04:51.597Z,811.00
2023-12-19T08:05:51.440Z,823.00
2023-12-19T08:06:51.619Z,829.00
2023-12-19T08:07:51.676Z,825.00
2023-12-19T08:08:51.529Z,833.00
2023-12-19T08:09:52.140Z,829.00
2023-12-19T08:10:51.648Z,830.00
2023-12-19T08:11:51.840Z,834.00
2023-12-19T08:12:51.781Z,846.00
2023-12-19T08:13:52.265Z,851.00
2023-12-19T08:14:51.800Z,846.00
2023-12-19T08:15:52.836Z,863.00
2023-12-19T08:16:51.902Z,868.00
2023-12-19T08:17:51.933Z,872.00
2023-12-19T08:18:52.854Z,877.00
2023-12-19T08:19:51.959Z,881.00
2023-12-19T08:20:51.984Z,882.00
2023-12-19T08:21:52.131Z,882.00
2023-12-19T08:22:51.992Z,875.00
2023-12-19T08:23:52.049Z,889.00
2023-12-19T08:24:52.060Z,885.00
2023-12-19T08:25:52.061Z,889.00
2023-12-19T08:26:52.518Z,888.00
2023-12-19T08:27:52.129Z,897.00
2023-12-19T08:28:52.081Z,909.00
2023-12-19T08:29:52.543Z,897.00
2023-12-19T08:30:52.207Z,890.00
2023-12-19T08:31:52.156Z,893.00
2023-12-19T08:32:52.311Z,914.00
2023-12-19T08:33:52.447Z,926.00
2023-12-19T08:34:52.767Z,934.00
2023-12-19T08:35:52.248Z,940.00
2023-12-19T08:36:52.290Z,934.00
2023-12-19T08:37:52.510Z,938.00
2023-12-19T08:38:52.245Z,934.00
2023-12-19T08:39:52.346Z,946.00
2023-12-19T08:40:53.109Z,947.00
2023-12-19T08:41:52.596Z,950.00
2023-12-19T08:42:52.438Z,967.00
2023-12-19T08:43:52.432Z,972.00
2023-12-19T08:44:52.482Z,975.00
2023-12-19T08:45:52.687Z,978.00
2023-12-19T08:46:52.732Z,973.00
2023-12-19T08:47:53.640Z,966.00
2023-12-19T08:48:52.700Z,974.00
2023-12-19T08:49:52.746Z,964.00
2023-12-19T08:50:52.748Z,967.00
2023-12-19T08:51:53.226Z,961.00
2023-12-19T08:52:52.877Z,961.00
2023-12-19T08:53:52.870Z,949.00
2023-12-19T08:54:52.967Z,957.00
2023-12-19T08:55:53.946Z,949.00
2023-12-19T08:56:53.856Z,953.00
2023-12-19T08:57:53.120Z,930.00
2023-12-19T08:58:53.150Z,929.00
2023-12-19T08:59:53.262Z,928.00
2023-12-19T09:00:53.366Z,928.00
2023-12-19T09:01:53.445Z,921.00
2023-12-19T09:02:53.638Z,913.00
2023-12-19T09:03:53.728Z,912.00
2023-12-19T09:04:55.628Z,908.00
2023-12-19T09:05:53.799Z,909.00
2023-12-19T09:06:54.008Z,901.00
2023-12-19T09:07:53.841Z,888.00
2023-12-19T09:08:54.757Z,895.00
2023-12-19T09:09:54.057Z,886.00
2023-12-19T09:10:53.995Z,879.00
2023-12-19T09:11:54.159Z,883.00
2023-12-19T09:12:54.655Z,872.00
2023-12-19T09:13:54.234Z,866.00
2023-12-19T09:14:54.563Z,869.00
2023-12-19T09:15:54.510Z,867.00
2023-12-19T09:16:54.840Z,874.00
2023-12-19T09:17:54.611Z,861.00
2023-12-19T09:18:54.719Z,865.00
2023-12-19T09:19:55.207Z,869.00
2023-12-19T09:20:54.810Z,861.00
2023-12-19T09:21:54.784Z,868.00
2023-12-19T09:22:55.568Z,853.00
2023-12-19T09:23:54.818Z,871.00
2023-12-19T09:24:54.961Z,861.00
2023-12-19T09:25:55.057Z,860.00
2023-12-19T09:26:55.033Z,844.00
2023-12-19T09:27:55.790Z,853.00
2023-12-19T09:28:55.171Z,856.00
2023-12-19T09:29:55.195Z,856.00
2023-12-19T09:30:55.327Z,851.00
2023-12-19T09:31:55.411Z,848.00
2023-12-19T09:32:55.408Z,852.00
2023-12-19T09:33:55.553Z,844.00
2023-12-19T09:34:55.680Z,836.00
2023-12-19T09:35:55.656Z,834.00
2023-12-19T09:36:57.354Z,839.00
2023-12-19T09:37:55.667Z,854.00
2023-12-19T09:38:55.715Z,862.00
2023-12-19T09:39:57.167Z,894.00
2023-12-19T09:40:56.106Z,908.00
2023-12-19T09:41:56.023Z,908.00
2023-12-19T09:42:56.585Z,878.00
2023-12-19T09:43:55.913Z,852.00
2023-12-19T09:44:56.082Z,830.00
2023-12-19T09:45:56.098Z,812.00
2023-12-19T09:46:55.938Z,798.00
2023-12-19T09:47:56.611Z,786.00
2023-12-19T09:48:56.117Z,792.00
2023-12-19T09:49:56.106Z,770.00
2023-12-19T09:50:56.139Z,767.00
2023-12-19T09:51:56.269Z,775.00
2023-12-19T09:52:56.233Z,759.00
2023-12-19T09:53:56.414Z,764.00
2023-12-19T09:54:57.774Z,755.00
2023-12-19T09:55:56.462Z,747.00
2023-12-19T09:56:56.475Z,749.00
2023-12-19T09:57:56.969Z,749.00
2023-12-19T09:58:57.151Z,743.00
2023-12-19T09:59:57.679Z,749.00
2023-12-19T10:00:56.871Z,742.00
2023-12-19T10:01:56.854Z,740.00
2023-12-19T10:02:58.621Z,737.00
2023-12-19T10:03:57.161Z,740.00
2023-12-19T10:04:57.095Z,745.00
2023-12-19T10:05:57.297Z,738.00
2023-12-19T10:06:57.114Z,738.00
2023-12-19T10:07:57.003Z,741.00
2023-12-19T10:08:57.060Z,736.00
2023-12-19T10:09:57.939Z,739.00
2023-12-19T10:10:57.681Z,743.00
2023-12-19T10:11:57.406Z,744.00
2023-12-19T10:12:58.327Z,743.00
2023-12-19T10:13:57.420Z,739.00
2023-12-19T10:14:57.882Z,733.00
2023-12-19T10:16:28.780Z,742.00
2023-12-19T10:16:58.778Z,742.00
2023-12-19T10:17:57.545Z,737.00
2023-12-19T10:18:57.917Z,742.00
2023-12-19T10:19:57.475Z,733.00
2023-12-19T10:20:58.373Z,733.00
2023-12-19T10:21:57.464Z,730.00
2023-12-19T10:22:57.420Z,738.00
2023-12-19T10:23:57.538Z,738.00
2023-12-19T10:24:57.440Z,733.00
2023-12-19T10:25:59.333Z,729.00
2023-12-19T10:26:57.401Z,736.00
2023-12-19T10:27:57.414Z,725.00
2023-12-19T10:28:57.733Z,729.00
2023-12-19T10:29:57.374Z,731.00
2023-12-19T10:30:57.544Z,727.00
2023-12-19T10:31:57.434Z,719.00
2023-12-19T10:32:57.511Z,723.00
2023-12-19T10:33:57.932Z,709.00
2023-12-19T10:34:57.603Z,706.00
2023-12-19T10:35:57.602Z,710.00
2023-12-19T10:36:57.567Z,710.00
2023-12-19T10:37:57.475Z,706.00
2023-12-19T10:38:58.239Z,696.00
2023-12-19T10:39:57.493Z,704.00
2023-12-19T10:40:57.540Z,693.00
2023-12-19T10:41:57.500Z,692.00
2023-12-19T10:42:57.732Z,703.00
2023-12-19T10:43:57.584Z,704.00
2023-12-19T10:44:57.557Z,696.00
2023-12-19T10:45:57.619Z,704.00
2023-12-19T10:46:57.638Z,696.00
2023-12-19T10:47:58.248Z,694.00
2023-12-19T10:48:57.863Z,700.00
2023-12-19T10:49:57.841Z,692.00
2023-12-19T10:50:58.749Z,697.00
2023-12-19T10:51:58.699Z,692.00
2023-12-19T10:52:58.185Z,687.00
2023-12-19T10:53:58.019Z,689.00
2023-12-19T10:54:58.789Z,675.00
2023-12-19T10:55:57.902Z,679.00
2023-12-19T10:56:57.960Z,676.00
2023-12-19T10:57:58.083Z,670.00
2023-12-19T10:58:58.019Z,680.00
2023-12-19T10:59:58.284Z,672.00
2023-12-19T11:00:58.167Z,671.00
2023-12-19T11:01:58.080Z,665.00
2023-12-19T11:02:58.144Z,675.00
2023-12-19T11:03:59.331Z,669.00
2023-12-19T11:04:58.256Z,665.00
2023-12-19T11:05:58.136Z,670.00
2023-12-19T11:06:58.256Z,668.00
2023-12-19T11:07:59.485Z,673.00
2023-12-19T11:08:59.625Z,667.00
2023-12-19T11:09:58.219Z,668.00
2023-12-19T11:10:58.155Z,664.00
2023-12-19T11:11:58.167Z,668.00
2023-12-19T11:12:58.639Z,665.00
2023-12-19T11:13:58.670Z,664.00
2023-12-19T11:14:58.176Z,665.00
2023-12-19T11:15:58.349Z,666.00
2023-12-19T11:16:58.236Z,661.00
2023-12-19T11:17:59.125Z,663.00
2023-12-19T11:18:58.495Z,661.00
2023-12-19T11:19:58.802Z,663.00
2023-12-19T11:20:58.520Z,663.00
2023-12-19T11:21:58.626Z,661.00
2023-12-19T11:22:58.742Z,664.00
2023-12-19T11:23:59.161Z,664.00
2023-12-19T11:24:58.914Z,670.00
2023-12-19T11:25:58.817Z,662.00
2023-12-19T11:26:58.988Z,660.00
2023-12-19T11:27:59.106Z,666.00
2023-12-19T11:28:59.209Z,667.00
2023-12-19T11:29:59.149Z,663.00
2023-12-19T11:30:59.421Z,663.00
2023-12-19T11:31:59.316Z,669.00
2023-12-19T11:32:59.314Z,667.00
2023-12-19T11:33:59.582Z,664.00
2023-12-19T11:34:59.426Z,663.00
2023-12-19T11:35:59.666Z,674.00
2023-12-19T11:36:59.522Z,672.00
2023-12-19T11:37:59.572Z,672.00
2023-12-19T11:38:59.694Z,665.00
2023-12-19T11:39:59.692Z,662.00
2023-12-19T11:41:00.336Z,674.00
2023-12-19T11:41:59.933Z,664.00
2023-12-19T11:42:59.879Z,671.00
2023-12-19T11:44:00.012Z,666.00
2023-12-19T11:45:00.135Z,668.00
2023-12-19T11:46:00.189Z,666.00
2023-12-19T11:47:00.228Z,678.00
2023-12-19T11:48:00.590Z,665.00
2023-12-19T11:49:00.635Z,664.00
2023-12-19T11:50:00.549Z,666.00
2023-12-19T11:51:00.707Z,666.00
2023-12-19T11:52:00.537Z,666.00
2023-12-19T11:53:00.794Z,663.00
2023-12-19T11:54:00.609Z,669.00
2023-12-19T11:55:00.722Z,666.00
2023-12-19T11:56:00.896Z,674.00
2023-12-19T11:57:00.770Z,665.00
2023-12-19T11:58:03.264Z,664.00
2023-12-19T11:59:00.827Z,665.00
2023-12-19T12:00:00.834Z,663.00
2023-12-19T12:01:01.046Z,662.00
2023-12-19T12:02:00.829Z,658.00
2023-12-19T12:03:01.166Z,664.00
2023-12-19T12:04:00.880Z,661.00
2023-12-19T12:05:00.802Z,662.00
2023-12-19T12:06:00.924Z,662.00
2023-12-19T12:07:00.817Z,657.00
2023-12-19T12:08:00.957Z,656.00
2023-12-19T12:09:00.862Z,656.00
2023-12-19T12:10:01.496Z,655.00
2023-12-19T12:11:00.938Z,657.00
2023-12-19T12:12:00.829Z,657.00
2023-12-19T12:13:00.913Z,650.00
2023-12-19T12:14:01.032Z,653.00
2023-12-19T12:15:01.355Z,650.00
2023-12-19T12:16:00.872Z,653.00
2023-12-19T12:17:00.940Z,649.00
2023-12-19T12:18:00.895Z,649.00
2023-12-19T12:19:01.053Z,647.00
2023-12-19T12:20:01.978Z,647.00
2023-12-19T12:21:00.855Z,648.00
2023-12-19T12:22:00.884Z,650.00
2023-12-19T12:23:00.869Z,649.00
2023-12-19T12:24:00.849Z,646.00
2023-12-19T12:25:00.980Z,648.00
2023-12-19T12:26:00.817Z,651.00
2023-12-19T12:27:00.985Z,652.00
2023-12-19T12:28:01.068Z,648.00
2023-12-19T12:29:00.941Z,648.00